createdAt,value
2022-12-28T00:01:52.456Z,4.13
2022-12-28T00:04:19.816Z,4.04
2022-12-28T00:06:47.781Z,4.01
2022-12-28T00:09:15.137Z,4.09
2022-12-28T00:11:42.848Z,4.10
2022-12-28T00:14:10.215Z,4.09
2022-12-28T00:16:41.966Z,4.15
2022-12-28T00:19:16.709Z,4.13
2022-12-28T00:21:46.044Z,4.17
2022-12-28T00:24:21.052Z,4.13
2022-12-28T00:26:49.401Z,4.23
2022-12-28T00:29:17.251Z,4.17
2022-12-28T00:31:46.385Z,4.16
2022-12-28T00:34:14.447Z,4.24
2022-12-28T00:37:11.092Z,4.16
2022-12-28T00:39:30.185Z,4.18
2022-12-28T00:41:59.269Z,4.13
2022-12-28T00:44:26.663Z,4.12
2022-12-28T00:46:54.293Z,4.07
2022-12-28T00:49:21.660Z,4.11
2022-12-28T00:51:49.236Z,3.95
2022-12-28T00:54:16.525Z,3.86
2022-12-28T00:56:44.109Z,3.82
2022-12-28T00:59:11.942Z,3.70
2022-12-28T01:01:39.931Z,3.62
2022-12-28T01:04:07.627Z,3.55
2022-12-28T01:06:35.275Z,3.52
2022-12-28T01:09:02.762Z,3.52
2022-12-28T01:11:31.537Z,3.47
2022-12-28T01:14:02.856Z,3.39
2022-12-28T01:16:36.934Z,3.46
2022-12-28T01:19:08.164Z,3.39
2022-12-28T01:21:37.347Z,3.26
2022-12-28T01:24:08.087Z,3.27
2022-12-28T01:26:36.861Z,3.19
2022-12-28T01:29:04.554Z,3.23
2022-12-28T01:31:32.982Z,3.13
2022-12-28T01:34:00.975Z,3.07
2022-12-28T01:36:32.980Z,2.95
2022-12-28T01:39:04.708Z,2.95
2022-12-28T01:41:38.526Z,2.90
2022-12-28T01:44:07.182Z,2.92
2022-12-28T01:46:43.099Z,2.94
2022-12-28T01:49:18.644Z,2.94
2022-12-28T01:52:13.973Z,2.87
2022-12-28T01:54:56.221Z,2.82
2022-12-28T01:57:30.245Z,2.77
2022-12-28T02:00:14.603Z,2.76
2022-12-28T02:03:04.606Z,2.75
2022-12-28T02:05:39.883Z,2.74
2022-12-28T02:08:36.081Z,2.61
2022-12-28T02:11:05.289Z,2.67
2022-12-28T02:13:34.535Z,2.58
2022-12-28T02:16:01.833Z,2.54
2022-12-28T02:18:29.492Z,2.56
2022-12-28T02:21:54.738Z,2.53
2022-12-28T02:25:12.927Z,2.50
2022-12-28T02:28:13.871Z,2.61
2022-12-28T02:30:57.176Z,2.40
2022-12-28T02:33:36.812Z,2.44
2022-12-28T02:36:18.817Z,2.40
2022-12-28T02:38:58.620Z,2.36
2022-12-28T02:41:26.921Z,2.29
2022-12-28T02:43:55.497Z,2.33
2022-12-28T02:46:52.296Z,2.33
2022-12-28T02:49:42.048Z,2.25
2022-12-28T02:52:28.215Z,2.30
2022-12-28T02:55:35.244Z,2.27
2022-12-28T02:58:27.530Z,2.21
2022-12-28T03:01:37.638Z,2.19
2022-12-28T03:04:32.902Z,2.16
2022-12-28T03:07:33.718Z,2.12
2022-12-28T03:10:16.117Z,2.13
2022-12-28T03:13:05.209Z,2.14
2022-12-28T03:15:38.796Z,2.23
2022-12-28T03:18:34.989Z,2.20
2022-12-28T03:21:29.264Z,2.19
2022-12-28T03:24:16.689Z,2.15
2022-12-28T03:27:10.484Z,2.40
2022-12-28T03:30:05.737Z,2.26
2022-12-28T03:32:34.628Z,2.25
2022-12-28T03:35:02.545Z,2.36
2022-12-28T03:37:47.339Z,2.27
2022-12-28T03:40:48.472Z,2.32
2022-12-28T03:43:41.289Z,2.27
2022-12-28T03:46:35.400Z,2.33
2022-12-28T03:49:03.797Z,2.27
2022-12-28T03:51:34.578Z,2.29
2022-12-28T03:54:02.142Z,2.29
2022-12-28T03:56:29.591Z,2.21
2022-12-28T03:58:57.754Z,2.18
2022-12-28T04:01:25.339Z,2.30
2022-12-28T04:03:52.959Z,2.28
2022-12-28T04:06:21.016Z,2.29
2022-12-28T04:08:48.812Z,2.27
2022-12-28T04:11:16.371Z,2.28
2022-12-28T04:13:44.481Z,2.30
2022-12-28T04:16:14.971Z,2.33
2022-12-28T04:18:43.260Z,2.33
2022-12-28T04:21:13.101Z,2.27
2022-12-28T04:23:41.101Z,2.19
2022-12-28T04:26:12.391Z,2.23
2022-12-28T04:28:41.176Z,2.24
2022-12-28T04:31:14.051Z,2.17
2022-12-28T04:33:42.168Z,2.21
2022-12-28T04:36:14.727Z,2.19
2022-12-28T04:38:42.840Z,2.14
2022-12-28T04:41:12.701Z,2.18
2022-12-28T04:43:40.565Z,2.19
2022-12-28T04:46:15.359Z,2.24
2022-12-28T04:48:43.759Z,2.23
2022-12-28T04:51:26.890Z,2.21
2022-12-28T04:53:56.716Z,2.23
2022-12-28T04:56:26.443Z,2.23
2022-12-28T04:59:00.187Z,2.28
2022-12-28T05:01:28.001Z,2.20
2022-12-28T05:03:59.683Z,2.20
2022-12-28T05:06:28.243Z,2.33
2022-12-28T05:08:57.653Z,2.22
2022-12-28T05:11:29.162Z,2.15
2022-12-28T05:13:57.317Z,2.16
2022-12-28T05:16:28.769Z,2.16
2022-12-28T05:18:57.865Z,2.17
2022-12-28T05:21:28.698Z,2.12
2022-12-28T05:23:57.493Z,2.12
2022-12-28T05:26:29.182Z,2.09
2022-12-28T05:28:58.805Z,2.25
2022-12-28T05:31:27.049Z,2.19
2022-12-28T05:33:55.240Z,2.24
2022-12-28T05:36:26.090Z,2.16
2022-12-28T05:38:55.784Z,2.16
2022-12-28T05:41:29.207Z,2.08
2022-12-28T05:43:59.455Z,2.01
2022-12-28T05:46:33.373Z,2.08
2022-12-28T05:49:02.160Z,2.16
2022-12-28T05:51:32.392Z,2.06
2022-12-28T05:54:04.596Z,2.00
2022-12-28T05:56:33.475Z,2.15
2022-12-28T05:59:05.697Z,2.13
2022-12-28T06:01:37.450Z,1.95
2022-12-28T06:04:14.387Z,2.05
2022-12-28T06:06:41.739Z,2.12
2022-12-28T06:09:09.326Z,2.14
2022-12-28T06:11:36.876Z,2.00
2022-12-28T06:14:06.078Z,1.97
2022-12-28T06:16:40.232Z,1.98
2022-12-28T06:19:11.951Z,1.99
2022-12-28T06:21:41.305Z,2.02
2022-12-28T06:24:11.410Z,2.10
2022-12-28T06:26:41.093Z,2.13
2022-12-28T06:29:08.974Z,2.07
2022-12-28T06:31:40.277Z,2.01
2022-12-28T06:34:10.261Z,2.01
2022-12-28T06:36:44.318Z,2.18
2022-12-28T06:39:14.620Z,2.02
2022-12-28T06:41:42.683Z,2.11
2022-12-28T06:44:13.767Z,2.03
2022-12-28T06:46:41.402Z,1.93
2022-12-28T06:49:09.371Z,2.08
2022-12-28T06:51:40.825Z,2.13
2022-12-28T06:54:10.479Z,2.08
2022-12-28T06:56:38.502Z,2.05
2022-12-28T06:59:06.982Z,2.15
2022-12-28T07:01:39.748Z,2.12
2022-12-28T07:04:10.356Z,2.21
2022-12-28T07:06:44.171Z,2.34
2022-12-28T07:09:15.341Z,2.23
2022-12-28T07:11:44.576Z,2.54
2022-12-28T07:14:12.451Z,2.43
2022-12-28T07:19:06.192Z,2.50
2022-12-28T07:21:37.666Z,2.50
2022-12-28T07:24:06.733Z,2.53
2022-12-28T07:26:36.907Z,2.44
2022-12-28T07:29:07.229Z,2.45
2022-12-28T07:31:45.348Z,2.51
2022-12-28T07:34:16.583Z,2.59
2022-12-28T07:36:44.054Z,2.63
2022-12-28T07:39:11.815Z,2.79
2022-12-28T07:41:39.306Z,2.85
2022-12-28T07:44:07.018Z,2.83
2022-12-28T07:46:37.446Z,3.04
2022-12-28T07:49:06.253Z,3.06
2022-12-28T07:51:37.449Z,3.23
2022-12-28T07:54:06.107Z,3.42
2022-12-28T07:59:05.013Z,3.50
2022-12-28T08:01:35.560Z,3.62
2022-12-28T08:04:12.124Z,3.61
2022-12-28T08:06:42.314Z,3.88
2022-12-28T08:09:13.355Z,4.18
2022-12-28T08:11:45.910Z,4.13
2022-12-28T08:14:13.738Z,4.26
2022-12-28T08:16:44.135Z,4.26
2022-12-28T08:19:13.712Z,4.27
2022-12-28T08:21:45.667Z,4.43
2022-12-28T08:24:19.832Z,4.47
2022-12-28T08:26:49.183Z,4.81
2022-12-28T08:29:21.336Z,5.03
2022-12-28T08:31:49.960Z,5.41
2022-12-28T08:34:26.523Z,5.32
2022-12-28T08:36:56.937Z,5.86
2022-12-28T08:39:24.598Z,6.18
2022-12-28T08:41:51.859Z,6.38
2022-12-28T08:44:19.563Z,6.91
2022-12-28T08:46:47.231Z,7.17
2022-12-28T08:49:15.059Z,7.27
2022-12-28T08:51:42.690Z,7.16
2022-12-28T08:54:14.069Z,7.58
2022-12-28T08:56:44.280Z,7.28
2022-12-28T08:59:18.798Z,7.38
2022-12-28T09:01:47.185Z,7.51
2022-12-28T09:04:22.825Z,7.65
2022-12-28T09:06:50.728Z,7.56
2022-12-28T09:09:19.972Z,7.32
2022-12-28T09:11:48.722Z,7.02
2022-12-28T09:14:23.203Z,6.83
2022-12-28T09:16:55.220Z,6.59
2022-12-28T09:19:23.257Z,6.60
2022-12-28T09:21:53.436Z,6.40
2022-12-28T09:24:22.764Z,6.36
2022-12-28T09:26:52.922Z,6.24
2022-12-28T09:29:21.024Z,6.04
2022-12-28T09:31:48.304Z,6.12
2022-12-28T09:37:03.898Z,5.81
2022-12-28T09:39:31.883Z,5.74
2022-12-28T09:42:17.694Z,5.60
2022-12-28T09:45:08.905Z,5.69
2022-12-28T09:47:52.028Z,5.75
2022-12-28T09:50:19.772Z,5.81
2022-12-28T09:53:06.031Z,6.05
2022-12-28T09:55:38.212Z,6.20
2022-12-28T09:58:14.392Z,6.19
2022-12-28T10:00:59.553Z,6.19
2022-12-28T10:03:41.038Z,5.96
2022-12-28T10:06:21.033Z,5.99
2022-12-28T10:09:01.369Z,5.90
2022-12-28T10:11:39.286Z,5.88
2022-12-28T10:14:27.834Z,5.70
2022-12-28T10:16:55.570Z,5.85
2022-12-28T10:19:27.909Z,5.87
2022-12-28T10:22:08.722Z,5.95
2022-12-28T10:24:37.340Z,5.85
2022-12-28T10:27:12.704Z,6.06
2022-12-28T10:29:44.687Z,6.19
2022-12-28T10:32:12.865Z,6.37
2022-12-28T10:34:59.225Z,6.27
2022-12-28T10:37:36.270Z,6.48
2022-12-28T10:40:25.852Z,6.63
2022-12-28T10:42:56.454Z,6.96
2022-12-28T10:45:34.193Z,7.51
2022-12-28T10:48:14.958Z,7.58
2022-12-28T10:50:58.335Z,7.62
2022-12-28T10:53:33.740Z,7.85
2022-12-28T10:56:17.504Z,7.86
2022-12-28T10:58:48.662Z,7.65
2022-12-28T11:01:19.551Z,7.46
2022-12-28T11:03:56.202Z,7.57
2022-12-28T11:06:50.821Z,8.58
2022-12-28T11:09:29.974Z,8.98
2022-12-28T11:12:18.823Z,8.99
2022-12-28T11:14:46.411Z,8.78
2022-12-28T11:17:19.718Z,10.05
2022-12-28T11:19:52.219Z,10.31
2022-12-28T11:22:29.997Z,10.74
2022-12-28T11:25:01.856Z,13.85
2022-12-28T11:27:29.395Z,14.68
2022-12-28T11:29:57.996Z,16.17
2022-12-28T11:32:42.823Z,16.34
2022-12-28T11:35:23.269Z,18.25
2022-12-28T11:38:03.655Z,17.76
2022-12-28T11:40:50.759Z,18.76
2022-12-28T11:43:29.885Z,20.11
2022-12-28T11:46:03.305Z,21.34
2022-12-28T11:48:42.545Z,21.77
2022-12-28T11:51:25.875Z,21.09
2022-12-28T11:54:23.845Z,19.05
2022-12-28T11:56:51.326Z,19.06
2022-12-28T11:59:34.794Z,21.35
2022-12-28T12:02:06.313Z,22.58
2022-12-28T12:04:41.256Z,21.85
2022-12-28T12:07:19.855Z,22.67
2022-12-28T12:10:09.758Z,22.77
2022-12-28T12:12:48.061Z,22.31
2022-12-28T12:15:40.290Z,20.68
2022-12-28T12:18:19.615Z,22.62
2022-12-28T12:21:13.546Z,20.39
2022-12-28T12:23:52.196Z,18.04
2022-12-28T12:26:45.159Z,15.44
2022-12-28T12:29:40.325Z,13.89
2022-12-28T12:32:44.709Z,12.97
2022-12-28T12:35:20.959Z,12.20
2022-12-28T12:38:40.940Z,11.62
2022-12-28T12:41:17.598Z,11.51
2022-12-28T12:44:15.965Z,11.17
2022-12-28T12:47:07.628Z,10.67
2022-12-28T12:50:00.970Z,10.44
2022-12-28T12:52:42.369Z,10.29
2022-12-28T12:55:46.363Z,10.21
2022-12-28T12:58:28.083Z,10.18
2022-12-28T13:01:39.582Z,10.07
2022-12-28T13:04:18.310Z,9.95
2022-12-28T13:06:46.022Z,10.00
2022-12-28T13:09:19.933Z,9.82
2022-12-28T13:11:47.651Z,9.65
2022-12-28T13:14:22.144Z,10.67
2022-12-28T13:16:55.700Z,14.11
2022-12-28T13:19:26.897Z,16.69
2022-12-28T13:21:55.217Z,18.28
2022-12-28T13:24:29.825Z,19.82
2022-12-28T13:27:00.168Z,20.11
2022-12-28T13:29:35.999Z,20.70
2022-12-28T13:32:03.432Z,20.21
2022-12-28T13:34:36.148Z,20.61
2022-12-28T13:37:21.343Z,20.46
2022-12-28T13:39:49.763Z,20.64
2022-12-28T13:42:39.523Z,20.09
2022-12-28T13:45:15.347Z,19.48
2022-12-28T13:47:50.193Z,16.99
2022-12-28T13:50:20.505Z,14.92
2022-12-28T13:53:08.195Z,13.82
2022-12-28T13:55:51.095Z,12.44
2022-12-28T13:58:29.832Z,12.17
2022-12-28T14:01:02.216Z,12.40
2022-12-28T14:03:37.515Z,13.79
2022-12-28T14:06:10.551Z,14.32
2022-12-28T14:08:40.208Z,13.92
2022-12-28T14:11:09.337Z,12.40
2022-12-28T14:13:40.182Z,11.48
2022-12-28T14:16:09.921Z,10.66
2022-12-28T14:18:38.747Z,10.42
2022-12-28T14:21:07.297Z,9.79
2022-12-28T14:23:38.556Z,9.35
2022-12-28T14:26:20.671Z,8.85
2022-12-28T14:28:55.406Z,8.58
2022-12-28T14:31:31.060Z,8.89
2022-12-28T14:34:05.204Z,9.17
2022-12-28T14:36:49.032Z,8.89
2022-12-28T14:39:40.492Z,8.67
2022-12-28T14:42:23.942Z,8.16
2022-12-28T14:44:56.219Z,7.81
2022-12-28T14:47:45.131Z,7.47
2022-12-28T14:50:30.018Z,7.38
2022-12-28T14:53:27.601Z,6.94
2022-12-28T14:56:18.463Z,6.83
2022-12-28T14:59:00.913Z,6.71
2022-12-28T15:01:47.153Z,6.43
2022-12-28T15:04:41.282Z,6.31
2022-12-28T15:07:12.041Z,6.37
2022-12-28T15:09:39.729Z,6.24
2022-12-28T15:12:15.043Z,6.19
2022-12-28T15:14:43.639Z,6.18
2022-12-28T15:17:11.187Z,5.95
2022-12-28T15:19:39.317Z,5.88
2022-12-28T15:22:06.637Z,5.82
2022-12-28T15:24:35.539Z,5.72
2022-12-28T15:27:04.974Z,5.81
2022-12-28T15:30:03.718Z,5.66
2022-12-28T15:32:20.098Z,5.60
2022-12-28T15:34:49.129Z,5.43
2022-12-28T15:37:16.534Z,5.45
2022-12-28T15:39:44.193Z,5.40
2022-12-28T15:42:11.543Z,5.39
2022-12-28T15:44:39.969Z,5.43
2022-12-28T15:47:07.327Z,5.44
2022-12-28T15:49:34.985Z,5.28
2022-12-28T15:52:02.339Z,5.21
2022-12-28T15:54:29.964Z,5.15
2022-12-28T15:56:57.990Z,5.44
2022-12-28T15:59:26.723Z,5.24
2022-12-28T16:01:54.415Z,5.16
2022-12-28T16:04:22.238Z,5.13
2022-12-28T16:06:49.612Z,5.15
2022-12-28T16:09:17.221Z,5.22
2022-12-28T16:11:46.597Z,5.27
2022-12-28T16:14:17.826Z,5.22
2022-12-28T16:16:46.062Z,5.21
2022-12-28T16:19:15.894Z,5.30
2022-12-28T16:21:44.252Z,5.32
2022-12-28T16:24:12.230Z,5.29
2022-12-28T16:26:39.684Z,5.34
2022-12-28T16:29:07.393Z,5.30
2022-12-28T16:31:38.108Z,5.23
2022-12-28T16:34:16.011Z,5.27
2022-12-28T16:36:46.494Z,5.23
2022-12-28T16:39:17.445Z,5.22
2022-12-28T16:41:44.887Z,5.24
2022-12-28T16:44:17.676Z,5.26
2022-12-28T16:46:45.328Z,5.35
2022-12-28T16:49:13.567Z,5.11
2022-12-28T16:51:45.452Z,5.20
2022-12-28T16:54:23.477Z,5.20
2022-12-28T16:56:52.274Z,5.18
2022-12-28T16:59:27.197Z,5.06
2022-12-28T17:01:56.902Z,5.05
2022-12-28T17:04:24.976Z,4.97
2022-12-28T17:06:53.425Z,4.95
2022-12-28T17:09:21.343Z,4.98
2022-12-28T17:11:50.417Z,5.15
2022-12-28T17:14:36.239Z,4.93
2022-12-28T17:17:06.604Z,4.99
2022-12-28T17:19:34.767Z,4.93
2022-12-28T17:22:02.649Z,4.99
2022-12-28T17:24:30.412Z,4.94
2022-12-28T17:27:01.817Z,4.96
2022-12-28T17:29:35.081Z,4.88
2022-12-28T17:32:04.073Z,4.94
2022-12-28T17:34:32.210Z,4.90
2022-12-28T17:36:59.715Z,4.89
2022-12-28T17:39:27.472Z,4.84
2022-12-28T17:41:54.827Z,4.80
2022-12-28T17:44:22.526Z,4.76
2022-12-28T17:46:50.059Z,4.71
2022-12-28T17:49:17.855Z,4.71
2022-12-28T17:51:45.299Z,4.80
2022-12-28T17:54:16.436Z,4.67
2022-12-28T17:56:44.028Z,4.62
2022-12-28T17:59:17.021Z,4.61
2022-12-28T18:01:44.581Z,4.66
2022-12-28T18:04:12.572Z,4.66
2022-12-28T18:06:40.619Z,4.65
2022-12-28T18:09:08.805Z,4.63
2022-12-28T18:11:36.299Z,4.59
2022-12-28T18:14:04.051Z,4.48
2022-12-28T18:16:31.538Z,4.54
2022-12-28T18:18:59.120Z,4.44
2022-12-28T18:21:27.070Z,4.42
2022-12-28T18:23:54.833Z,4.51
2022-12-28T18:26:28.320Z,4.45
2022-12-28T18:28:57.170Z,4.46
2022-12-28T18:31:25.467Z,4.43
2022-12-28T18:33:54.771Z,4.37
2022-12-28T18:36:22.574Z,4.48
2022-12-28T18:38:50.791Z,4.50
2022-12-28T18:41:25.495Z,4.46
2022-12-28T18:43:56.991Z,4.48
2022-12-28T18:46:24.390Z,4.58
2022-12-28T18:48:52.101Z,4.62
2022-12-28T18:51:19.902Z,4.51
2022-12-28T18:53:47.553Z,4.50
2022-12-28T18:56:20.329Z,4.60
2022-12-28T18:58:56.378Z,4.52
2022-12-28T19:04:17.179Z,4.64
2022-12-28T19:06:44.968Z,4.61
2022-12-28T19:09:14.184Z,4.61
2022-12-28T19:11:42.369Z,4.71
2022-12-28T19:14:13.373Z,4.60
2022-12-28T19:16:41.366Z,4.63
2022-12-28T19:19:09.080Z,4.68
2022-12-28T19:21:39.508Z,4.82
2022-12-28T19:24:16.774Z,4.78
2022-12-28T19:26:45.970Z,4.70
2022-12-28T19:29:16.201Z,4.69
2022-12-28T19:31:43.827Z,4.63
2022-12-28T19:34:11.514Z,4.55
2022-12-28T19:36:39.010Z,4.68
2022-12-28T19:39:07.000Z,4.61
2022-12-28T19:41:35.695Z,4.54
2022-12-28T19:44:03.496Z,4.58
2022-12-28T19:46:31.579Z,4.54
2022-12-28T19:49:02.905Z,4.51
2022-12-28T19:51:32.493Z,4.56
2022-12-28T19:54:01.904Z,4.53
2022-12-28T19:56:29.865Z,4.49
2022-12-28T19:59:05.455Z,4.60
2022-12-28T20:01:35.082Z,4.54
2022-12-28T20:04:10.539Z,4.56
2022-12-28T20:06:43.197Z,4.52
2022-12-28T20:09:13.233Z,4.52
2022-12-28T20:11:41.156Z,4.56
2022-12-28T20:14:13.696Z,4.50
2022-12-28T20:16:42.298Z,4.44
2022-12-28T20:19:12.354Z,4.60
2022-12-28T20:21:42.014Z,4.57
2022-12-28T20:24:12.881Z,4.48
2022-12-28T20:26:40.612Z,4.55
2022-12-28T20:29:08.407Z,4.52
2022-12-28T20:31:35.911Z,4.60
2022-12-28T20:34:03.697Z,4.52
2022-12-28T20:36:33.952Z,4.45
2022-12-28T20:39:02.610Z,4.41
2022-12-28T20:41:51.157Z,4.35
2022-12-28T20:44:30.444Z,4.33
2022-12-28T20:46:59.996Z,4.35
2022-12-28T20:49:29.192Z,4.32
2022-12-28T20:51:56.641Z,4.39
2022-12-28T20:54:24.853Z,4.36
2022-12-28T20:56:55.411Z,4.36
2022-12-28T20:59:25.197Z,4.43
2022-12-28T21:01:53.635Z,4.40
2022-12-28T21:04:24.032Z,4.50
2022-12-28T21:06:52.636Z,4.55
2022-12-28T21:09:20.627Z,4.54
2022-12-28T21:11:47.952Z,4.72
2022-12-28T21:14:15.576Z,4.88
2022-12-28T21:16:43.104Z,4.76
2022-12-28T21:19:11.083Z,4.81
2022-12-28T21:21:39.346Z,4.70
2022-12-28T21:24:07.303Z,4.74
2022-12-28T21:26:34.588Z,4.73
2022-12-28T21:29:02.130Z,4.80
2022-12-28T21:31:29.452Z,4.78
2022-12-28T21:33:57.150Z,4.74
2022-12-28T21:36:24.558Z,4.70
2022-12-28T21:38:52.090Z,4.70
2022-12-28T21:41:41.004Z,4.72
2022-12-28T21:44:12.532Z,4.68
2022-12-28T21:46:41.095Z,4.77
2022-12-28T21:49:09.766Z,4.72
2022-12-28T21:51:40.725Z,4.66
2022-12-28T21:54:15.363Z,4.68
2022-12-28T21:56:45.968Z,4.70
2022-12-28T21:59:13.934Z,4.72
2022-12-28T22:02:01.336Z,4.73
2022-12-28T22:04:48.728Z,4.95
2022-12-28T22:07:19.723Z,4.96
2022-12-28T22:10:06.863Z,5.08
2022-12-28T22:12:34.572Z,4.98
2022-12-28T22:15:37.847Z,4.91
2022-12-28T22:21:13.327Z,4.93
2022-12-28T22:23:40.560Z,4.94
2022-12-28T22:26:08.259Z,4.97
2022-12-28T22:28:35.854Z,4.93
2022-12-28T22:31:08.035Z,4.96
2022-12-28T22:33:35.690Z,5.02
2022-12-28T22:36:16.443Z,5.09
2022-12-28T22:38:44.059Z,5.01
2022-12-28T22:41:11.860Z,5.00
2022-12-28T22:43:39.212Z,5.01
2022-12-28T22:46:12.040Z,4.97
2022-12-28T22:48:39.732Z,5.12
2022-12-28T22:51:11.618Z,5.12
2022-12-28T22:53:39.843Z,5.04
2022-12-28T22:56:12.630Z,5.14
2022-12-28T22:58:39.971Z,5.01
2022-12-28T23:01:17.903Z,4.99
2022-12-28T23:03:52.087Z,5.05
2022-12-28T23:06:20.508Z,4.99
2022-12-28T23:08:48.325Z,4.92
2022-12-28T23:11:36.727Z,4.84
2022-12-28T23:14:38.390Z,4.82
2022-12-28T23:17:14.032Z,4.77
2022-12-28T23:20:04.792Z,4.90
2022-12-28T23:22:53.861Z,4.87
2022-12-28T23:25:43.116Z,4.75
2022-12-28T23:28:14.513Z,4.69
2022-12-28T23:30:48.033Z,4.80
2022-12-28T23:33:17.725Z,4.75
2022-12-28T23:35:45.320Z,4.80
2022-12-28T23:38:12.942Z,4.96
2022-12-28T23:40:41.721Z,4.82
2022-12-28T23:43:09.703Z,4.82
2022-12-28T23:45:37.165Z,4.91
2022-12-28T23:48:05.807Z,4.83
2022-12-28T23:50:33.324Z,4.97
2022-12-28T23:53:00.929Z,4.88
2022-12-28T23:55:28.261Z,4.98
2022-12-28T23:57:55.887Z,5.10
